createdAt,value
2018-06-18T00:01:44.519Z,5.43
2018-06-18T00:04:18.723Z,5.90
2018-06-18T00:06:52.967Z,6.07
2018-06-18T00:09:27.069Z,5.80
2018-06-18T00:12:01.504Z,6.87
2018-06-18T00:14:35.811Z,6.43
2018-06-18T00:17:10.031Z,6.03
2018-06-18T00:19:44.320Z,6.30
2018-06-18T00:22:19.047Z,6.27
2018-06-18T00:24:53.390Z,6.10
2018-06-18T00:27:27.782Z,6.50
2018-06-18T00:30:02.180Z,6.20
2018-06-18T00:32:36.447Z,7.30
2018-06-18T00:35:10.748Z,6.97
2018-06-18T00:37:44.982Z,7.73
2018-06-18T00:40:19.196Z,7.10
2018-06-18T00:42:53.535Z,7.63
2018-06-18T00:45:27.814Z,6.90
2018-06-18T00:48:02.142Z,6.90
2018-06-18T00:50:36.434Z,6.70
2018-06-18T00:53:10.814Z,6.47
2018-06-18T00:55:56.526Z,7.27
2018-06-18T00:58:30.785Z,8.73
2018-06-18T01:01:05.034Z,9.27
2018-06-18T01:03:39.281Z,10.93
2018-06-18T01:06:13.483Z,11.13
2018-06-18T01:08:47.874Z,9.83
2018-06-18T01:11:22.353Z,9.93
2018-06-18T01:13:56.695Z,10.37
2018-06-18T01:16:30.998Z,9.30
2018-06-18T01:19:05.341Z,12.40
2018-06-18T01:21:39.565Z,11.87
2018-06-18T01:24:19.310Z,9.90
2018-06-18T01:26:53.490Z,8.70
2018-06-18T01:29:27.595Z,7.47
2018-06-18T01:32:01.748Z,7.20
2018-06-18T01:34:36.041Z,6.90
2018-06-18T01:37:10.218Z,7.63
2018-06-18T01:39:44.509Z,7.83
2018-06-18T01:42:18.718Z,7.90
2018-06-18T01:44:52.880Z,7.70
2018-06-18T01:47:27.187Z,9.03
2018-06-18T01:50:01.600Z,8.73
2018-06-18T01:52:36.043Z,8.60
2018-06-18T01:55:10.350Z,9.10
2018-06-18T01:57:44.671Z,8.43
2018-06-18T02:00:18.713Z,9.30
2018-06-18T02:02:53.070Z,8.80
2018-06-18T02:05:27.167Z,8.30
2018-06-18T02:08:01.554Z,8.90
2018-06-18T02:10:35.911Z,8.07
2018-06-18T02:13:10.329Z,7.20
2018-06-18T02:15:44.800Z,7.50
2018-06-18T02:18:18.997Z,7.20
2018-06-18T02:20:53.134Z,6.73
2018-06-18T02:23:27.386Z,7.27
2018-06-18T02:26:01.662Z,7.57
2018-06-18T02:30:45.867Z,7.50
2018-06-18T02:33:25.770Z,7.37
2018-06-18T02:36:05.506Z,7.17
2018-06-18T02:38:45.047Z,7.57
2018-06-18T02:41:19.534Z,7.20
2018-06-18T02:43:53.664Z,7.23
2018-06-18T02:46:27.979Z,7.03
2018-06-18T02:49:02.118Z,6.67
2018-06-18T02:51:36.488Z,7.07
2018-06-18T02:54:10.655Z,7.03
2018-06-18T02:56:54.507Z,6.33
2018-06-18T02:59:28.826Z,7.40
2018-06-18T03:02:03.186Z,7.03
2018-06-18T03:04:37.479Z,6.47
2018-06-18T03:07:11.844Z,7.30
2018-06-18T03:09:46.194Z,7.60
2018-06-18T03:12:20.498Z,7.40
2018-06-18T03:14:54.942Z,7.07
2018-06-18T03:17:29.176Z,6.90
2018-06-18T03:20:08.801Z,5.47
2018-06-18T03:22:48.334Z,5.47
2018-06-18T03:25:27.838Z,6.10
2018-06-18T03:28:07.627Z,5.63
2018-06-18T03:30:41.826Z,5.13
2018-06-18T03:33:16.111Z,5.03
2018-06-18T03:35:50.288Z,5.07
2018-06-18T03:38:25.196Z,5.40
2018-06-18T03:40:59.359Z,5.00
2018-06-18T03:43:35.826Z,5.03
2018-06-18T03:46:10.191Z,5.80
2018-06-18T03:48:44.473Z,6.20
2018-06-18T03:51:18.822Z,4.90
2018-06-18T03:53:53.113Z,6.03
2018-06-18T03:56:27.491Z,5.63
2018-06-18T03:59:01.858Z,6.40
2018-06-18T04:01:49.865Z,5.80
2018-06-18T04:04:29.831Z,5.60
2018-06-18T04:07:09.497Z,5.37
2018-06-18T04:09:49.039Z,6.47
2018-06-18T04:12:23.330Z,5.30
2018-06-18T04:14:57.999Z,6.35
2018-06-18T04:17:32.339Z,6.30
2018-06-18T04:20:06.882Z,5.83
2018-06-18T04:22:41.159Z,5.73
2018-06-18T04:25:15.342Z,6.20
2018-06-18T04:27:49.515Z,5.97
2018-06-18T04:30:23.819Z,6.37
2018-06-18T04:32:57.995Z,5.40
2018-06-18T04:35:32.296Z,6.13
2018-06-18T04:38:06.613Z,6.10
2018-06-18T04:40:40.942Z,6.10
2018-06-18T04:43:20.740Z,6.07
2018-06-18T04:46:00.214Z,6.10
2018-06-18T04:48:39.721Z,5.17
2018-06-18T04:51:13.877Z,5.67
2018-06-18T04:53:48.034Z,5.30
2018-06-18T04:56:22.479Z,5.70
2018-06-18T04:58:56.580Z,5.43
2018-06-18T05:01:31.636Z,5.70
2018-06-18T05:04:05.972Z,5.60
2018-06-18T05:06:40.259Z,5.43
2018-06-18T05:09:25.187Z,6.00
2018-06-18T05:11:59.447Z,6.43
2018-06-18T05:14:33.834Z,5.63
2018-06-18T05:17:08.102Z,5.43
2018-06-18T05:19:42.519Z,4.97
2018-06-18T05:22:19.342Z,5.07
2018-06-18T05:24:53.794Z,5.53
2018-06-18T05:27:30.378Z,4.93
2018-06-18T05:30:09.509Z,5.10
2018-06-18T05:32:43.767Z,5.63
2018-06-18T05:35:18.157Z,5.50
2018-06-18T05:37:56.878Z,4.90
2018-06-18T05:40:31.088Z,5.10
2018-06-18T05:43:05.403Z,5.10
2018-06-18T05:45:39.879Z,4.40
2018-06-18T05:48:14.157Z,5.27
2018-06-18T05:50:48.557Z,5.20
2018-06-18T05:53:22.688Z,5.10
2018-06-18T05:55:57.065Z,6.07
2018-06-18T05:58:31.485Z,5.33
2018-06-18T06:01:05.965Z,5.10
2018-06-18T06:03:40.203Z,5.73
2018-06-18T06:06:14.829Z,4.97
2018-06-18T06:08:48.994Z,5.00
2018-06-18T06:11:23.347Z,4.53
2018-06-18T06:13:57.755Z,4.93
2018-06-18T06:16:32.026Z,4.90
2018-06-18T06:19:06.298Z,4.57
2018-06-18T06:21:40.701Z,4.40
2018-06-18T06:24:15.097Z,5.20
2018-06-18T06:26:49.296Z,4.30
2018-06-18T06:29:23.590Z,5.00
2018-06-18T06:31:57.852Z,4.13
2018-06-18T06:34:32.367Z,4.50
2018-06-18T06:37:06.638Z,5.33
2018-06-18T06:39:40.906Z,4.30
2018-06-18T06:42:17.441Z,5.13
2018-06-18T06:44:51.592Z,4.67
2018-06-18T06:47:25.798Z,5.67
2018-06-18T06:50:00.234Z,5.00
2018-06-18T06:52:34.576Z,5.80
2018-06-18T06:55:08.770Z,4.83
2018-06-18T06:57:43.047Z,5.50
2018-06-18T07:00:17.271Z,4.73
2018-06-18T07:02:51.554Z,5.60
2018-06-18T07:05:25.869Z,6.00
2018-06-18T07:08:00.224Z,5.63
2018-06-18T07:10:34.611Z,5.00
2018-06-18T07:13:08.787Z,5.63
2018-06-18T07:15:43.150Z,5.70
2018-06-18T07:18:17.462Z,5.77
2018-06-18T07:20:51.698Z,5.83
2018-06-18T07:23:25.895Z,6.23
2018-06-18T07:26:00.225Z,5.93
2018-06-18T07:28:34.518Z,5.53
2018-06-18T07:31:08.954Z,5.47
2018-06-18T07:33:42.965Z,5.03
2018-06-18T07:36:17.288Z,5.80
2018-06-18T07:38:51.562Z,4.93
2018-06-18T07:41:25.765Z,5.30
2018-06-18T07:44:00.071Z,5.60
2018-06-18T07:46:34.298Z,5.20
2018-06-18T07:49:08.516Z,4.70
2018-06-18T07:51:42.937Z,4.43
2018-06-18T07:54:17.211Z,4.67
2018-06-18T07:56:51.378Z,4.63
2018-06-18T07:59:25.783Z,5.03
2018-06-18T08:02:00.068Z,4.50
2018-06-18T08:04:34.456Z,4.30
2018-06-18T08:07:08.638Z,4.60
2018-06-18T08:09:42.912Z,5.30
2018-06-18T08:12:17.074Z,5.00
2018-06-18T08:14:51.377Z,5.00
2018-06-18T08:17:25.800Z,5.00
2018-06-18T08:20:00.016Z,4.80
2018-06-18T08:22:34.195Z,5.30
2018-06-18T08:25:08.523Z,4.87
2018-06-18T08:27:43.146Z,4.80
2018-06-18T08:30:17.340Z,5.87
2018-06-18T08:32:51.544Z,4.70
2018-06-18T08:35:25.835Z,4.77
2018-06-18T08:38:00.079Z,4.83
2018-06-18T08:40:34.363Z,5.13
2018-06-18T08:43:08.778Z,4.87
2018-06-18T08:45:43.130Z,4.10
2018-06-18T08:49:21.310Z,5.03
2018-06-18T08:52:01.078Z,4.80
2018-06-18T08:54:40.697Z,4.47
2018-06-18T08:57:20.349Z,4.60
2018-06-18T08:59:59.830Z,4.13
2018-06-18T09:02:34.164Z,4.30
2018-06-18T09:05:12.071Z,4.37
2018-06-18T09:07:51.887Z,5.43
2018-06-18T09:10:26.173Z,5.00
2018-06-18T09:13:00.725Z,4.93
2018-06-18T09:15:34.832Z,5.87
2018-06-18T09:18:09.059Z,5.60
2018-06-18T09:20:43.466Z,5.30
2018-06-18T09:23:17.790Z,5.87
2018-06-18T09:25:58.577Z,6.33
2018-06-18T09:28:32.755Z,5.07
2018-06-18T09:31:06.995Z,5.67
2018-06-18T09:33:43.998Z,5.93
2018-06-18T09:36:18.184Z,5.30
2018-06-18T09:38:52.623Z,5.03
2018-06-18T09:41:26.900Z,5.90
2018-06-18T09:44:00.961Z,5.10
2018-06-18T09:46:35.230Z,5.50
2018-06-18T09:49:14.863Z,5.23
2018-06-18T09:51:54.440Z,5.93
2018-06-18T09:54:34.043Z,5.20
2018-06-18T09:57:26.012Z,4.87
2018-06-18T10:00:07.574Z,5.10
2018-06-18T10:02:41.771Z,5.30
2018-06-18T10:05:16.104Z,5.23
2018-06-18T10:07:50.274Z,5.20
2018-06-18T10:10:24.587Z,4.90
2018-06-18T10:12:59.205Z,4.43
2018-06-18T10:15:33.401Z,4.60
2018-06-18T10:18:07.769Z,4.83
2018-06-18T10:20:42.044Z,4.30
2018-06-18T10:23:16.215Z,4.70
2018-06-18T10:25:50.544Z,4.43
2018-06-18T10:28:24.954Z,5.17
2018-06-18T10:30:59.267Z,4.53
2018-06-18T10:33:38.958Z,6.07
2018-06-18T10:36:18.734Z,5.00
2018-06-18T10:38:58.326Z,5.63
2018-06-18T10:41:38.132Z,5.33
2018-06-18T10:44:12.374Z,5.13
2018-06-18T10:46:46.698Z,4.87
2018-06-18T10:49:20.837Z,4.83
2018-06-18T10:51:55.164Z,4.83
2018-06-18T10:54:29.463Z,4.93
2018-06-18T10:57:03.838Z,5.10
2018-06-18T10:59:38.104Z,4.70
2018-06-18T11:02:12.400Z,4.90
2018-06-18T11:04:52.267Z,4.67
2018-06-18T11:07:26.478Z,4.00
2018-06-18T11:10:00.842Z,4.50
2018-06-18T11:12:35.064Z,4.17
2018-06-18T11:15:09.365Z,4.13
2018-06-18T11:18:47.355Z,4.57
2018-06-18T11:21:26.854Z,4.10
2018-06-18T11:24:06.423Z,3.63
2018-06-18T11:26:46.382Z,4.20
2018-06-18T11:29:20.575Z,3.93
2018-06-18T11:31:54.853Z,3.63
2018-06-18T11:34:29.251Z,3.60
2018-06-18T11:37:03.474Z,3.80
2018-06-18T11:39:37.785Z,3.77
2018-06-18T11:42:12.043Z,3.30
2018-06-18T11:44:46.405Z,3.77
2018-06-18T11:47:20.654Z,4.00
2018-06-18T11:49:55.270Z,3.67
2018-06-18T11:52:29.600Z,3.70
2018-06-18T11:55:03.888Z,3.67
2018-06-18T11:57:38.110Z,3.90
2018-06-18T12:02:21.398Z,3.40
2018-06-18T12:06:04.144Z,9.07
2018-06-18T12:08:43.770Z,3.17
2018-06-18T12:11:18.035Z,2.77
2018-06-18T12:13:52.258Z,3.10
2018-06-18T12:16:26.590Z,3.03
2018-06-18T12:19:01.018Z,2.63
2018-06-18T12:21:35.510Z,9.50
2018-06-18T12:24:09.702Z,2.53
2018-06-18T12:26:44.087Z,2.53
2018-06-18T12:29:18.226Z,2.53
2018-06-18T12:31:52.407Z,2.80
2018-06-18T12:34:26.725Z,2.90
2018-06-18T12:37:01.029Z,2.43
2018-06-18T12:39:35.265Z,2.83
2018-06-18T12:42:10.142Z,2.57
2018-06-18T12:44:49.956Z,2.90
2018-06-18T12:47:29.889Z,2.60
2018-06-18T12:50:09.510Z,2.80
2018-06-18T12:52:49.075Z,3.00
2018-06-18T12:55:28.623Z,3.10
2018-06-18T12:58:02.815Z,3.33
2018-06-18T13:00:37.106Z,11.80
2018-06-18T13:03:13.303Z,2.93
2018-06-18T13:05:47.587Z,2.63
2018-06-18T13:08:21.938Z,2.70
2018-06-18T13:10:56.224Z,2.43
2018-06-18T13:13:30.518Z,2.60
2018-06-18T13:16:04.931Z,4.17
2018-06-18T13:18:39.070Z,3.50
2018-06-18T13:21:13.388Z,3.50
2018-06-18T13:23:47.659Z,4.00
2018-06-18T13:26:21.914Z,4.33
2018-06-18T13:28:56.258Z,4.57
2018-06-18T13:31:30.439Z,4.87
2018-06-18T13:34:04.642Z,5.00
2018-06-18T13:36:38.935Z,4.87
2018-06-18T13:39:18.619Z,10.43
2018-06-18T13:41:58.186Z,6.23
2018-06-18T13:44:37.923Z,6.03
2018-06-18T13:47:17.448Z,5.63
2018-06-18T13:49:55.051Z,5.57
2018-06-18T13:52:29.445Z,4.90
2018-06-18T13:55:03.672Z,5.10
2018-06-18T13:57:38.048Z,4.60
2018-06-18T14:00:12.502Z,5.53
2018-06-18T14:02:46.927Z,4.70
2018-06-18T14:05:21.083Z,5.00
2018-06-18T14:07:55.339Z,4.80
2018-06-18T14:10:29.622Z,5.03
2018-06-18T14:13:03.914Z,6.67
2018-06-18T14:15:38.228Z,5.00
2018-06-18T14:18:12.372Z,5.60
2018-06-18T14:20:46.762Z,5.07
2018-06-18T14:23:21.068Z,4.93
2018-06-18T14:25:55.410Z,4.23
2018-06-18T14:28:29.642Z,4.73
2018-06-18T14:31:09.639Z,4.90
2018-06-18T14:33:49.414Z,5.50
2018-06-18T14:36:29.096Z,5.00
2018-06-18T14:39:08.652Z,5.13
2018-06-18T14:41:42.820Z,7.40
2018-06-18T14:44:17.158Z,5.57
2018-06-18T14:46:51.602Z,5.80
2018-06-18T14:49:26.051Z,5.70
2018-06-18T14:52:00.283Z,21.03
2018-06-18T14:54:34.474Z,5.80
2018-06-18T14:57:09.030Z,11.50
2018-06-18T14:59:49.655Z,6.20
2018-06-18T15:02:23.858Z,11.80
2018-06-18T15:04:58.225Z,6.90
2018-06-18T15:07:32.491Z,7.33
2018-06-18T15:10:06.964Z,6.30
2018-06-18T15:12:47.443Z,11.97
2018-06-18T15:15:27.224Z,6.20
2018-06-18T15:18:01.504Z,6.80
2018-06-18T15:20:35.813Z,6.50
2018-06-18T15:23:10.558Z,6.93
2018-06-18T15:25:47.654Z,7.03
2018-06-18T15:28:21.992Z,6.43
2018-06-18T15:30:56.291Z,6.60
2018-06-18T15:33:30.670Z,7.97
2018-06-18T15:36:05.008Z,6.73
2018-06-18T15:38:39.269Z,5.83
2018-06-18T15:41:13.514Z,6.17
2018-06-18T15:43:47.883Z,6.20
2018-06-18T15:46:22.317Z,6.37
2018-06-18T15:48:56.632Z,5.60
2018-06-18T15:51:30.938Z,5.40
2018-06-18T15:54:05.655Z,7.07
2018-06-18T15:56:39.910Z,13.10
2018-06-18T15:59:14.091Z,7.67
2018-06-18T16:01:48.781Z,8.90
2018-06-18T16:04:23.044Z,8.80
2018-06-18T16:06:57.427Z,8.67
2018-06-18T16:09:31.753Z,10.00
2018-06-18T16:12:06.076Z,8.37
2018-06-18T16:14:40.314Z,7.43
2018-06-18T16:17:14.501Z,7.33
2018-06-18T16:19:48.659Z,7.80
2018-06-18T16:22:22.733Z,7.33
2018-06-18T16:24:56.910Z,7.17
2018-06-18T16:27:31.158Z,7.30
2018-06-18T16:30:05.640Z,7.30
2018-06-18T16:32:39.879Z,7.23
2018-06-18T16:35:14.171Z,9.70
2018-06-18T16:37:48.573Z,10.77
2018-06-18T16:40:22.753Z,10.03
2018-06-18T16:42:57.241Z,7.53
2018-06-18T16:45:31.403Z,7.17
2018-06-18T16:48:05.858Z,6.03
2018-06-18T16:50:40.087Z,6.37
2018-06-18T16:53:14.447Z,5.77
2018-06-18T16:55:48.629Z,5.60
2018-06-18T16:58:22.987Z,6.00
2018-06-18T17:00:57.238Z,5.53
2018-06-18T17:03:31.485Z,6.07
2018-06-18T17:06:05.833Z,5.57
2018-06-18T17:08:40.102Z,5.83
2018-06-18T17:11:14.433Z,5.40
2018-06-18T17:13:48.755Z,4.83
2018-06-18T17:16:23.150Z,4.80
2018-06-18T17:18:57.558Z,5.00
2018-06-18T17:21:31.906Z,5.00
2018-06-18T17:24:06.281Z,4.53
2018-06-18T17:26:40.558Z,5.23
2018-06-18T17:29:14.845Z,5.10
2018-06-18T17:31:49.116Z,5.10
2018-06-18T17:34:23.420Z,4.93
2018-06-18T17:36:57.619Z,5.07
2018-06-18T17:39:31.989Z,4.63
2018-06-18T17:42:06.086Z,5.07
2018-06-18T17:44:40.363Z,4.50
2018-06-18T17:47:14.658Z,5.30
2018-06-18T17:49:49.081Z,5.20
2018-06-18T17:52:23.622Z,5.33
2018-06-18T17:54:57.792Z,4.90
2018-06-18T17:57:31.930Z,5.33
2018-06-18T18:00:06.199Z,6.17
2018-06-18T18:02:40.562Z,5.67
2018-06-18T18:05:14.705Z,6.10
2018-06-18T18:07:49.111Z,5.70
2018-06-18T18:10:23.504Z,6.03
2018-06-18T18:12:57.912Z,6.23
2018-06-18T18:15:32.189Z,6.37
2018-06-18T18:18:06.510Z,6.07
2018-06-18T18:20:40.748Z,6.00
2018-06-18T18:23:15.290Z,6.17
2018-06-18T18:25:49.363Z,5.97
2018-06-18T18:28:23.666Z,6.90
2018-06-18T18:30:57.909Z,6.70
2018-06-18T18:33:32.251Z,6.63
2018-06-18T18:36:06.622Z,6.63
2018-06-18T18:38:40.826Z,6.60
2018-06-18T18:41:15.095Z,7.47
2018-06-18T18:43:49.401Z,6.97
2018-06-18T18:46:23.774Z,7.43
2018-06-18T18:48:58.110Z,7.00
2018-06-18T18:51:32.291Z,6.77
2018-06-18T18:54:06.635Z,7.00
2018-06-18T18:57:27.259Z,8.27
2018-06-18T19:00:01.523Z,7.30
2018-06-18T19:02:35.842Z,7.50
2018-06-18T19:05:10.058Z,7.50
2018-06-18T19:07:44.841Z,7.40
2018-06-18T19:10:23.401Z,7.53
2018-06-18T19:12:59.614Z,7.37
2018-06-18T19:15:33.954Z,6.87
2018-06-18T19:18:08.658Z,7.47
2018-06-18T19:20:46.182Z,8.50
2018-06-18T19:23:20.510Z,7.77
2018-06-18T19:25:54.746Z,8.13
2018-06-18T19:28:29.167Z,8.97
2018-06-18T19:31:08.167Z,8.90
2018-06-18T19:33:50.108Z,9.73
2018-06-18T19:36:24.368Z,9.90
2018-06-18T19:38:58.690Z,8.33
2018-06-18T19:41:32.962Z,9.20
2018-06-18T19:44:07.235Z,8.03
2018-06-18T19:46:49.920Z,7.97
2018-06-18T19:49:24.077Z,7.93
2018-06-18T19:51:58.598Z,7.50
2018-06-18T19:54:35.354Z,7.47
2018-06-18T19:57:09.582Z,8.93
2018-06-18T19:59:43.775Z,7.87
2018-06-18T20:02:18.032Z,8.27
2018-06-18T20:04:52.326Z,8.37
2018-06-18T20:07:26.906Z,8.47
2018-06-18T20:10:01.074Z,8.37
2018-06-18T20:12:35.358Z,8.73
2018-06-18T20:15:11.806Z,8.57
2018-06-18T20:17:46.054Z,8.63
2018-06-18T20:20:20.358Z,8.10
2018-06-18T20:22:54.534Z,7.73
2018-06-18T20:25:33.028Z,8.00
2018-06-18T20:28:07.302Z,7.93
2018-06-18T20:30:41.597Z,7.10
2018-06-18T20:33:17.368Z,7.00
2018-06-18T20:35:59.393Z,7.03
2018-06-18T20:38:33.855Z,6.60
2018-06-18T20:41:08.846Z,6.70
2018-06-18T20:44:07.057Z,6.80
2018-06-18T20:46:41.329Z,6.30
2018-06-18T20:49:15.735Z,6.20
2018-06-18T20:51:50.055Z,6.77
2018-06-18T20:54:24.378Z,6.80
2018-06-18T20:56:58.869Z,7.10
2018-06-18T20:59:33.170Z,6.90
2018-06-18T21:02:07.433Z,7.17
2018-06-18T21:04:41.745Z,6.33
2018-06-18T21:07:16.074Z,7.33
2018-06-18T21:09:50.290Z,6.77
2018-06-18T21:12:24.608Z,6.80
2018-06-18T21:15:00.305Z,7.23
2018-06-18T21:17:34.471Z,6.87
2018-06-18T21:20:08.798Z,7.70
2018-06-18T21:22:43.131Z,7.40
2018-06-18T21:25:17.423Z,7.77
2018-06-18T21:27:51.837Z,9.70
2018-06-18T21:30:26.210Z,9.33
2018-06-18T21:33:00.834Z,10.53
2018-06-18T21:35:35.128Z,11.27
2018-06-18T21:38:09.375Z,10.97
2018-06-18T21:40:43.774Z,11.30
2018-06-18T21:43:17.966Z,11.10
2018-06-18T21:45:52.186Z,10.57
2018-06-18T21:48:26.468Z,10.53
2018-06-18T21:51:00.798Z,11.20
2018-06-18T21:53:35.122Z,10.93
2018-06-18T21:56:09.328Z,11.30
2018-06-18T21:58:43.574Z,10.70
2018-06-18T22:01:29.275Z,11.57
2018-06-18T22:04:03.506Z,11.23
2018-06-18T22:06:38.034Z,11.33
2018-06-18T22:09:16.172Z,11.33
2018-06-18T22:11:52.564Z,11.30
2018-06-18T22:14:26.823Z,11.77
2018-06-18T22:17:01.151Z,11.80
2018-06-18T22:19:35.544Z,11.37
2018-06-18T22:22:09.915Z,11.83
2018-06-18T22:24:44.199Z,11.70
2018-06-18T22:27:18.422Z,12.43
2018-06-18T22:29:52.799Z,12.37
2018-06-18T22:32:26.986Z,13.03
2018-06-18T22:35:01.295Z,11.77
2018-06-18T22:37:35.606Z,11.87
2018-06-18T22:40:09.857Z,11.87
2018-06-18T22:42:44.220Z,12.57
2018-06-18T22:45:18.462Z,12.57
2018-06-18T22:47:52.784Z,11.93
2018-06-18T22:50:27.008Z,12.73
2018-06-18T22:53:01.398Z,12.90
2018-06-18T22:55:35.764Z,12.00
2018-06-18T22:58:10.039Z,13.20
2018-06-18T23:00:44.346Z,13.13
2018-06-18T23:03:18.782Z,13.27
2018-06-18T23:05:53.242Z,13.27
2018-06-18T23:08:27.463Z,12.47
2018-06-18T23:11:01.779Z,13.07
2018-06-18T23:13:36.694Z,12.97
2018-06-18T23:16:10.844Z,12.27
2018-06-18T23:18:45.155Z,12.70
2018-06-18T23:21:19.503Z,14.37
2018-06-18T23:23:53.727Z,12.67
2018-06-18T23:26:28.161Z,11.57
2018-06-18T23:29:06.222Z,11.23
2018-06-18T23:31:40.390Z,11.40
2018-06-18T23:34:14.619Z,10.57
2018-06-18T23:36:48.874Z,11.67
2018-06-18T23:39:23.166Z,10.30
2018-06-18T23:41:58.082Z,10.83
2018-06-18T23:44:32.472Z,10.80
2018-06-18T23:47:06.629Z,11.23
2018-06-18T23:49:41.037Z,10.87
2018-06-18T23:52:15.382Z,10.47
2018-06-18T23:54:49.715Z,9.70
2018-06-18T23:57:23.985Z,10.87
2018-06-18T23:59:58.402Z,11.43
